Time;durP1;ratioP1;P1;durP2;ratioP2;P2;SDS_P1;SDS_P2;PMS_P1;PMS_P2;Temp;Humidity;BMP_temperature;BMP_pressure;BME280_temperature;BME280_humidity;BME280_pressure;Samples;Min_cycle;Max_cycle;Signal;HPM_P1;HPM_P2
2023/01/23 00:01:56;;;;;;;0.52;0.50;;;;;;;;;;4972796;28;20486;-73
2023/01/23 00:04:22;;;;;;;2.05;0.40;;;;;;;;;;4983649;28;20481;-74
2023/01/23 00:06:49;;;;;;;0.63;0.43;;;;;;;;;;4970349;28;20065;-73
2023/01/23 00:09:16;;;;;;;0.73;0.40;;;;;;;;;;4977781;28;20905;-73
2023/01/23 00:11:42;;;;;;;1.38;0.50;;;;;;;;;;4976179;28;20030;-73
2023/01/23 00:14:09;;;;;;;0.60;0.50;;;;;;;;;;4981943;28;20543;-73
2023/01/23 00:16:35;;;;;;;0.90;0.50;;;;;;;;;;4977032;28;20430;-73
2023/01/23 00:19:02;;;;;;;0.75;0.40;;;;;;;;;;4978111;28;20042;-73
2023/01/23 00:21:28;;;;;;;2.05;0.60;;;;;;;;;;4978195;28;20030;-73
2023/01/23 00:23:56;;;;;;;4.85;2.58;;;;;;;;;;4969608;28;20045;-73
2023/01/23 00:26:23;;;;;;;0.82;0.60;;;;;;;;;;4977055;28;20121;-73
2023/01/23 00:28:49;;;;;;;1.98;0.80;;;;;;;;;;4975640;28;20019;-73
2023/01/23 00:31:20;;;;;;;1.58;0.52;;;;;;;;;;4977237;28;20068;-73
2023/01/23 00:33:46;;;;;;;1.33;0.50;;;;;;;;;;4974107;28;20036;-73
2023/01/23 00:36:14;;;;;;;0.73;0.50;;;;;;;;;;4977572;28;20042;-73
2023/01/23 00:38:40;;;;;;;1.20;0.50;;;;;;;;;;4977244;28;20026;-73
2023/01/23 00:41:07;;;;;;;0.65;0.40;;;;;;;;;;4977568;28;20026;-73
2023/01/23 00:43:33;;;;;;;1.40;0.50;;;;;;;;;;4981864;28;20038;-73
2023/01/23 00:45:59;;;;;;;0.93;0.50;;;;;;;;;;4975694;28;20047;-73
2023/01/23 00:48:25;;;;;;;2.20;0.70;;;;;;;;;;4983391;28;20033;-73
2023/01/23 00:50:52;;;;;;;0.65;0.57;;;;;;;;;;4976267;28;20030;-73
2023/01/23 00:53:18;;;;;;;0.65;0.50;;;;;;;;;;4977523;28;20045;-73
2023/01/23 00:55:44;;;;;;;0.65;0.55;;;;;;;;;;4978566;28;20566;-73
2023/01/23 00:58:10;;;;;;;1.65;0.60;;;;;;;;;;4979726;28;20466;-73
2023/01/23 01:00:38;;;;;;;0.95;0.50;;;;;;;;;;4975032;28;20691;-73
2023/01/23 01:03:04;;;;;;;0.40;0.40;;;;;;;;;;4975286;28;20026;-73
2023/01/23 01:05:30;;;;;;;1.85;0.47;;;;;;;;;;4983788;28;20045;-73
2023/01/23 01:07:57;;;;;;;0.55;0.47;;;;;;;;;;4981172;28;20060;-73
2023/01/23 01:10:28;;;;;;;1.00;0.40;;;;;;;;;;4975432;28;20030;-73
2023/01/23 01:12:54;;;;;;;0.43;0.30;;;;;;;;;;4979449;28;20018;-73
2023/01/23 01:15:20;;;;;;;1.52;0.60;;;;;;;;;;4979076;28;20053;-73
2023/01/23 01:17:46;;;;;;;2.03;0.50;;;;;;;;;;4980757;28;20040;-73
2023/01/23 01:20:13;;;;;;;0.75;0.50;;;;;;;;;;4977907;28;20035;-73
2023/01/23 01:22:39;;;;;;;2.67;0.50;;;;;;;;;;4977841;28;20026;-73
2023/01/23 01:25:05;;;;;;;0.75;0.50;;;;;;;;;;4982722;28;20091;-73
2023/01/23 01:27:31;;;;;;;0.75;0.50;;;;;;;;;;4983283;28;20631;-73
2023/01/23 01:29:58;;;;;;;2.15;0.40;;;;;;;;;;4981732;28;20117;-73
2023/01/23 01:32:24;;;;;;;0.80;0.57;;;;;;;;;;4977989;28;20502;-73
2023/01/23 01:34:51;;;;;;;1.80;0.55;;;;;;;;;;4979884;28;20042;-73
2023/01/23 01:37:17;;;;;;;1.63;0.93;;;;;;;;;;4973980;28;20030;-73
2023/01/23 01:39:43;;;;;;;0.63;0.52;;;;;;;;;;4984120;28;20030;-73
2023/01/23 01:42:09;;;;;;;0.60;0.60;;;;;;;;;;4980994;28;20027;-73
2023/01/23 01:44:54;;;;;;;0.95;0.60;;;;;;;;;;4982339;28;20026;-73
2023/01/23 01:47:20;;;;;;;2.85;0.60;;;;;;;;;;4979008;28;20415;-73
2023/01/23 01:49:47;;;;;;;0.85;0.65;;;;;;;;;;4982404;28;20033;-73
2023/01/23 01:52:14;;;;;;;0.80;0.60;;;;;;;;;;4977143;28;20040;-72
2023/01/23 01:54:40;;;;;;;1.85;0.57;;;;;;;;;;4977507;28;20038;-73
2023/01/23 01:57:22;;;;;;;0.68;0.50;;;;;;;;;;4977633;28;20026;-72
2023/01/23 01:59:51;;;;;;;2.58;0.60;;;;;;;;;;4979722;28;20027;-73
2023/01/23 02:02:34;;;;;;;1.92;0.77;;;;;;;;;;4976587;28;20077;-73
2023/01/23 02:05:03;;;;;;;2.58;0.73;;;;;;;;;;4975836;28;20054;-73
2023/01/23 02:07:33;;;;;;;1.63;0.75;;;;;;;;;;4973787;28;20050;-73
2023/01/23 02:10:05;;;;;;;0.70;0.55;;;;;;;;;;4975952;28;20137;-73
2023/01/23 02:12:33;;;;;;;1.13;0.68;;;;;;;;;;4971813;28;20030;-73
2023/01/23 02:15:00;;;;;;;0.65;0.50;;;;;;;;;;4974557;28;20085;-73
2023/01/23 02:17:26;;;;;;;1.20;0.75;;;;;;;;;;4968239;28;20042;-73
2023/01/23 02:19:53;;;;;;;1.30;0.50;;;;;;;;;;4974402;28;20109;-73
2023/01/23 02:22:19;;;;;;;1.05;0.95;;;;;;;;;;4972935;28;20455;-73
2023/01/23 02:24:53;;;;;;;1.65;0.80;;;;;;;;;;4974368;28;20034;-73
2023/01/23 02:27:20;;;;;;;0.73;0.40;;;;;;;;;;4970879;28;20780;-73
2023/01/23 02:29:47;;;;;;;1.63;0.60;;;;;;;;;;4974382;28;20074;-73
2023/01/23 02:32:13;;;;;;;1.23;0.50;;;;;;;;;;4977486;28;20098;-73
2023/01/23 02:34:39;;;;;;;2.22;0.68;;;;;;;;;;4970275;28;20046;-72
2023/01/23 02:37:06;;;;;;;1.90;0.90;;;;;;;;;;4972583;28;20161;-72
2023/01/23 02:39:32;;;;;;;2.67;0.70;;;;;;;;;;4972362;28;20030;-73
2023/01/23 02:41:59;;;;;;;0.77;0.57;;;;;;;;;;4971103;28;20030;-73
2023/01/23 02:44:27;;;;;;;0.88;0.60;;;;;;;;;;4973622;28;20030;-73
2023/01/23 02:46:54;;;;;;;1.52;0.60;;;;;;;;;;4973766;28;20030;-73
2023/01/23 02:49:21;;;;;;;0.77;0.60;;;;;;;;;;4968366;28;20562;-72
2023/01/23 02:51:48;;;;;;;0.80;0.47;;;;;;;;;;4969735;28;20046;-73
2023/01/23 02:54:14;;;;;;;1.20;0.75;;;;;;;;;;4972513;28;20118;-73
2023/01/23 02:56:41;;;;;;;1.17;0.68;;;;;;;;;;4971124;28;20031;-73
2023/01/23 03:01:53;;;;;;;1.88;0.60;;;;;;;;;;4972789;28;20637;-73
2023/01/23 03:04:19;;;;;;;1.63;0.70;;;;;;;;;;4973120;28;20084;-73
2023/01/23 03:06:46;;;;;;;0.80;0.50;;;;;;;;;;4977930;28;20030;-73
2023/01/23 03:09:14;;;;;;;1.00;0.60;;;;;;;;;;4973974;28;20041;-72
2023/01/23 03:11:41;;;;;;;2.10;0.68;;;;;;;;;;4975047;28;20046;-73
2023/01/23 03:14:09;;;;;;;0.88;0.60;;;;;;;;;;4982661;28;20514;-72
2023/01/23 03:16:35;;;;;;;1.20;0.60;;;;;;;;;;4978696;28;20673;-72
2023/01/23 03:19:07;;;;;;;0.85;0.60;;;;;;;;;;4974170;28;20476;-72
2023/01/23 03:21:35;;;;;;;1.40;0.60;;;;;;;;;;4979611;28;20027;-72
2023/01/23 03:24:03;;;;;;;1.02;0.70;;;;;;;;;;4977153;28;20022;-72
2023/01/23 03:26:30;;;;;;;0.80;0.60;;;;;;;;;;4977935;28;20097;-72
2023/01/23 03:31:41;;;;;;;1.42;0.90;;;;;;;;;;4980729;28;20037;-72
2023/01/23 03:34:07;;;;;;;1.38;0.75;;;;;;;;;;4976693;28;20104;-72
2023/01/23 03:36:36;;;;;;;4.55;0.70;;;;;;;;;;4980585;28;20110;-72
2023/01/23 03:41:50;;;;;;;0.90;0.60;;;;;;;;;;4980769;28;20041;-73
2023/01/23 03:44:17;;;;;;;1.23;0.70;;;;;;;;;;4977176;28;20026;-72
2023/01/23 03:46:44;;;;;;;0.95;0.70;;;;;;;;;;4977442;28;20034;-72
2023/01/23 03:49:10;;;;;;;1.13;0.80;;;;;;;;;;4978286;28;20018;-72
2023/01/23 03:51:36;;;;;;;1.45;0.80;;;;;;;;;;4977808;28;20069;-72
2023/01/23 03:54:02;;;;;;;2.78;0.68;;;;;;;;;;4976820;28;20027;-72
2023/01/23 03:56:29;;;;;;;2.70;0.90;;;;;;;;;;4978914;28;20110;-73
2023/01/23 03:58:55;;;;;;;1.52;0.80;;;;;;;;;;4978282;28;20028;-73
2023/01/23 04:01:21;;;;;;;1.05;0.70;;;;;;;;;;4975288;28;20078;-72
2023/01/23 04:03:47;;;;;;;2.15;0.95;;;;;;;;;;4980186;28;20039;-72
2023/01/23 04:06:14;;;;;;;0.80;0.55;;;;;;;;;;4977539;28;20038;-72
2023/01/23 04:08:40;;;;;;;2.45;0.73;;;;;;;;;;4976792;28;20030;-72
2023/01/23 04:11:07;;;;;;;2.85;0.65;;;;;;;;;;4980704;28;20479;-72
2023/01/23 04:13:34;;;;;;;1.00;0.60;;;;;;;;;;4974773;28;20023;-72
2023/01/23 04:16:00;;;;;;;0.70;0.50;;;;;;;;;;4975661;28;20038;-72
2023/01/23 04:18:27;;;;;;;0.82;0.60;;;;;;;;;;4974764;28;20019;-72
2023/01/23 04:20:53;;;;;;;1.02;0.70;;;;;;;;;;4982164;28;20896;-73
2023/01/23 04:23:20;;;;;;;1.38;0.70;;;;;;;;;;4977014;28;20467;-72
2023/01/23 04:25:46;;;;;;;1.55;0.77;;;;;;;;;;4978166;28;21174;-72
2023/01/23 04:28:12;;;;;;;0.50;0.50;;;;;;;;;;4975131;28;20391;-73
2023/01/23 04:30:38;;;;;;;0.82;0.60;;;;;;;;;;4973983;28;20424;-72
2023/01/23 04:33:04;;;;;;;1.17;0.77;;;;;;;;;;4979230;28;20044;-72
2023/01/23 04:35:30;;;;;;;1.48;0.70;;;;;;;;;;4979547;28;20034;-72
2023/01/23 04:37:57;;;;;;;0.52;0.50;;;;;;;;;;4979204;28;20018;-72
2023/01/23 04:40:23;;;;;;;1.25;0.90;;;;;;;;;;4979373;28;20066;-72
2023/01/23 04:42:49;;;;;;;1.20;0.73;;;;;;;;;;4979704;28;20058;-72
2023/01/23 04:45:15;;;;;;;1.75;0.50;;;;;;;;;;4972126;28;20030;-72
2023/01/23 04:47:41;;;;;;;1.30;0.60;;;;;;;;;;4976902;28;20029;-72
2023/01/23 04:50:08;;;;;;;1.02;0.60;;;;;;;;;;4975164;28;20534;-73
2023/01/23 04:52:34;;;;;;;1.65;0.43;;;;;;;;;;4975486;28;20031;-72
2023/01/23 04:55:00;;;;;;;0.68;0.60;;;;;;;;;;4973864;28;20667;-73
2023/01/23 04:57:26;;;;;;;0.57;0.40;;;;;;;;;;4975620;28;20052;-73
2023/01/23 04:59:52;;;;;;;0.82;0.60;;;;;;;;;;4972903;28;20034;-73
2023/01/23 05:02:18;;;;;;;0.75;0.50;;;;;;;;;;4973803;28;20035;-73
2023/01/23 05:04:45;;;;;;;0.70;0.32;;;;;;;;;;4978215;28;20062;-73
2023/01/23 05:07:11;;;;;;;0.47;0.30;;;;;;;;;;4970189;28;20088;-73
2023/01/23 05:09:38;;;;;;;0.45;0.40;;;;;;;;;;4975720;28;20069;-73
2023/01/23 05:12:05;;;;;;;0.82;0.50;;;;;;;;;;4973115;28;20525;-73
2023/01/23 05:14:31;;;;;;;0.47;0.40;;;;;;;;;;4974729;28;20395;-73
2023/01/23 05:16:57;;;;;;;0.70;0.50;;;;;;;;;;4973454;28;20054;-73
2023/01/23 05:19:24;;;;;;;0.75;0.47;;;;;;;;;;4974060;28;20041;-73
2023/01/23 05:21:50;;;;;;;0.70;0.30;;;;;;;;;;4976137;28;20030;-72
2023/01/23 05:24:16;;;;;;;0.30;0.30;;;;;;;;;;4976134;28;20053;-73
2023/01/23 05:26:42;;;;;;;0.45;0.40;;;;;;;;;;4973758;28;20042;-73
2023/01/23 05:29:08;;;;;;;0.68;0.40;;;;;;;;;;4971913;28;20046;-73
2023/01/23 05:31:34;;;;;;;0.90;0.40;;;;;;;;;;4975240;28;20108;-72
2023/01/23 05:34:01;;;;;;;0.50;0.40;;;;;;;;;;4975014;28;20076;-73
2023/01/23 05:36:27;;;;;;;0.40;0.20;;;;;;;;;;4972082;28;20075;-72
2023/01/23 05:38:54;;;;;;;0.60;0.40;;;;;;;;;;4975429;28;20572;-73
2023/01/23 05:41:20;;;;;;;0.50;0.30;;;;;;;;;;4978021;28;20628;-73
2023/01/23 05:43:48;;;;;;;0.50;0.40;;;;;;;;;;4969856;28;20439;-73
2023/01/23 05:46:15;;;;;;;0.60;0.40;;;;;;;;;;4975105;28;20029;-73
2023/01/23 05:48:41;;;;;;;0.38;0.38;;;;;;;;;;4967224;28;20496;-73
2023/01/23 05:51:07;;;;;;;0.52;0.50;;;;;;;;;;4978441;28;20038;-73
2023/01/23 05:53:33;;;;;;;0.50;0.30;;;;;;;;;;4976292;28;20026;-73
2023/01/23 05:56:04;;;;;;;0.90;0.40;;;;;;;;;;4973858;28;20048;-73
2023/01/23 05:58:30;;;;;;;0.60;0.50;;;;;;;;;;4975683;28;20391;-73
2023/01/23 06:00:56;;;;;;;2.10;0.30;;;;;;;;;;4971190;28;20049;-73
2023/01/23 06:03:22;;;;;;;0.90;0.32;;;;;;;;;;4978252;28;20464;-73
2023/01/23 06:05:48;;;;;;;0.50;0.30;;;;;;;;;;4974618;28;20046;-73
2023/01/23 06:08:15;;;;;;;3.28;0.43;;;;;;;;;;4977221;28;20034;-73
2023/01/23 06:10:41;;;;;;;0.45;0.20;;;;;;;;;;4974766;28;20511;-73
2023/01/23 06:13:07;;;;;;;2.17;0.60;;;;;;;;;;4976060;28;20480;-73
2023/01/23 06:15:33;;;;;;;0.52;0.38;;;;;;;;;;4974549;28;20048;-73
2023/01/23 06:17:59;;;;;;;0.55;0.35;;;;;;;;;;4974181;28;20015;-72
2023/01/23 06:20:25;;;;;;;0.45;0.32;;;;;;;;;;4979707;28;20022;-73
2023/01/23 06:22:51;;;;;;;4.72;0.80;;;;;;;;;;4981921;28;20037;-73
2023/01/23 06:25:19;;;;;;;0.63;0.40;;;;;;;;;;4978260;28;20033;-72
2023/01/23 06:27:45;;;;;;;1.33;0.32;;;;;;;;;;4978238;28;20030;-73
2023/01/23 06:30:12;;;;;;;2.13;0.60;;;;;;;;;;4976760;28;20115;-74
2023/01/23 06:32:38;;;;;;;1.00;0.40;;;;;;;;;;4976088;28;20026;-73
2023/01/23 06:35:04;;;;;;;1.63;0.38;;;;;;;;;;4978663;28;20121;-73
2023/01/23 06:37:30;;;;;;;1.38;0.60;;;;;;;;;;4975041;28;20040;-73
2023/01/23 06:39:57;;;;;;;1.50;0.50;;;;;;;;;;4970910;28;20031;-73
2023/01/23 06:42:23;;;;;;;0.60;0.40;;;;;;;;;;4977959;28;20651;-74
2023/01/23 06:44:49;;;;;;;0.60;0.30;;;;;;;;;;4966723;28;20057;-74
2023/01/23 06:47:16;;;;;;;0.55;0.40;;;;;;;;;;4983628;28;20470;-76
2023/01/23 06:49:42;;;;;;;0.95;0.50;;;;;;;;;;4976850;28;20461;-74
2023/01/23 06:52:08;;;;;;;2.08;0.40;;;;;;;;;;4984583;28;20506;-74
2023/01/23 06:54:35;;;;;;;0.63;0.50;;;;;;;;;;4980361;28;20050;-74
2023/01/23 06:57:01;;;;;;;0.68;0.50;;;;;;;;;;4983999;28;20018;-74
2023/01/23 06:59:27;;;;;;;2.30;0.52;;;;;;;;;;4980086;28;20032;-74
2023/01/23 07:01:53;;;;;;;1.27;0.60;;;;;;;;;;4980014;28;20022;-74
2023/01/23 07:04:19;;;;;;;0.80;0.40;;;;;;;;;;4977925;28;20027;-74
2023/01/23 07:06:45;;;;;;;1.48;0.30;;;;;;;;;;4982925;28;20026;-74
2023/01/23 07:09:12;;;;;;;0.73;0.40;;;;;;;;;;4976790;28;20037;-74
2023/01/23 07:11:38;;;;;;;0.90;0.80;;;;;;;;;;4980474;28;20036;-74
2023/01/23 07:14:04;;;;;;;4.95;1.42;;;;;;;;;;4979807;28;20033;-74
2023/01/23 07:16:31;;;;;;;2.40;1.30;;;;;;;;;;4982149;28;20040;-74
2023/01/23 07:18:57;;;;;;;2.05;1.20;;;;;;;;;;4982236;28;20026;-74
2023/01/23 07:21:24;;;;;;;1.48;0.88;;;;;;;;;;4980928;28;20114;-74
2023/01/23 07:23:50;;;;;;;1.95;0.82;;;;;;;;;;4981339;28;20052;-74
2023/01/23 07:26:17;;;;;;;1.27;0.70;;;;;;;;;;4977857;28;20022;-74
2023/01/23 07:28:43;;;;;;;1.23;0.75;;;;;;;;;;4978991;28;20010;-74
2023/01/23 07:31:09;;;;;;;0.75;0.60;;;;;;;;;;4977803;28;20041;-74
2023/01/23 07:33:35;;;;;;;1.65;0.80;;;;;;;;;;4979289;28;20022;-74
2023/01/23 07:36:04;;;;;;;1.08;0.57;;;;;;;;;;4977323;28;20034;-74
2023/01/23 07:38:30;;;;;;;1.70;0.93;;;;;;;;;;4977971;28;20045;-74
2023/01/23 07:40:58;;;;;;;0.73;0.40;;;;;;;;;;4975843;28;20450;-74
2023/01/23 07:43:24;;;;;;;2.33;1.17;;;;;;;;;;4975692;28;20855;-74
2023/01/23 07:45:50;;;;;;;0.45;0.43;;;;;;;;;;4978390;28;20018;-74
2023/01/23 07:48:16;;;;;;;1.05;0.60;;;;;;;;;;4977954;28;20019;-74
2023/01/23 07:50:42;;;;;;;1.38;0.90;;;;;;;;;;4981527;28;20014;-74
2023/01/23 07:53:09;;;;;;;2.25;1.00;;;;;;;;;;4976158;28;20092;-74
2023/01/23 07:55:37;;;;;;;3.65;0.77;;;;;;;;;;4979349;28;20030;-74
2023/01/23 07:58:04;;;;;;;0.93;0.70;;;;;;;;;;4977039;28;20022;-74
2023/01/23 08:00:30;;;;;;;2.95;0.65;;;;;;;;;;4979269;28;20032;-74
2023/01/23 08:02:56;;;;;;;0.77;0.55;;;;;;;;;;4979145;28;20403;-74
2023/01/23 08:05:22;;;;;;;2.45;0.82;;;;;;;;;;4975979;28;20527;-74
2023/01/23 08:07:48;;;;;;;0.65;0.60;;;;;;;;;;4977140;28;20054;-74
2023/01/23 08:10:15;;;;;;;2.35;1.10;;;;;;;;;;4976427;28;20088;-74
2023/01/23 08:12:41;;;;;;;1.65;0.85;;;;;;;;;;4982314;28;20483;-74
2023/01/23 08:15:07;;;;;;;1.92;0.93;;;;;;;;;;4974809;28;20125;-74
2023/01/23 08:17:33;;;;;;;1.80;1.10;;;;;;;;;;4971957;28;20674;-74
2023/01/23 08:20:00;;;;;;;2.40;1.10;;;;;;;;;;4974025;28;20109;-74
2023/01/23 08:22:26;;;;;;;1.83;1.00;;;;;;;;;;4977174;28;20022;-74
2023/01/23 08:24:52;;;;;;;2.10;1.00;;;;;;;;;;4980440;28;20022;-74
2023/01/23 08:27:18;;;;;;;2.60;1.10;;;;;;;;;;4974852;28;20045;-74
2023/01/23 08:29:44;;;;;;;1.88;1.00;;;;;;;;;;4977641;28;20356;-74
2023/01/23 08:32:10;;;;;;;1.58;0.63;;;;;;;;;;4977897;28;20031;-74
2023/01/23 08:34:37;;;;;;;2.05;0.80;;;;;;;;;;4979378;28;20058;-74
2023/01/23 08:37:03;;;;;;;1.08;0.70;;;;;;;;;;4974658;28;20026;-74
2023/01/23 08:39:29;;;;;;;2.30;0.90;;;;;;;;;;4977468;28;20186;-74
2023/01/23 08:41:55;;;;;;;1.15;0.70;;;;;;;;;;4977863;28;20022;-73
2023/01/23 08:44:21;;;;;;;1.98;1.13;;;;;;;;;;4977814;28;20037;-74
2023/01/23 08:46:47;;;;;;;3.33;1.15;;;;;;;;;;4974358;28;20037;-74
2023/01/23 08:49:14;;;;;;;1.35;0.80;;;;;;;;;;4978527;28;20031;-74
2023/01/23 08:51:40;;;;;;;0.90;0.70;;;;;;;;;;4977369;28;20022;-74
2023/01/23 08:54:06;;;;;;;4.40;0.90;;;;;;;;;;4974382;28;20110;-74
2023/01/23 08:56:32;;;;;;;1.58;0.98;;;;;;;;;;4980163;28;20030;-74
2023/01/23 08:58:58;;;;;;;1.75;0.70;;;;;;;;;;4973468;28;20106;-74
2023/01/23 09:01:25;;;;;;;0.63;0.43;;;;;;;;;;4980673;28;20382;-74
2023/01/23 09:03:52;;;;;;;3.33;0.75;;;;;;;;;;4971589;28;20364;-74
2023/01/23 09:06:19;;;;;;;1.27;0.75;;;;;;;;;;4977284;28;20055;-74
2023/01/23 09:08:46;;;;;;;1.30;0.60;;;;;;;;;;4974924;28;20092;-74
2023/01/23 09:11:12;;;;;;;1.30;0.82;;;;;;;;;;4977346;28;20030;-74
2023/01/23 09:13:39;;;;;;;1.88;0.80;;;;;;;;;;4974918;28;20030;-73
2023/01/23 09:16:09;;;;;;;1.83;1.10;;;;;;;;;;4975009;28;20058;-73
2023/01/23 09:18:35;;;;;;;1.67;1.00;;;;;;;;;;4976654;28;20030;-74
2023/01/23 09:21:05;;;;;;;2.50;1.50;;;;;;;;;;4972356;28;20027;-74
2023/01/23 09:23:31;;;;;;;4.03;1.40;;;;;;;;;;4980660;28;20022;-74
2023/01/23 09:26:02;;;;;;;2.90;1.80;;;;;;;;;;4975227;28;20029;-73
2023/01/23 09:28:28;;;;;;;2.95;1.52;;;;;;;;;;4978599;28;20030;-74
2023/01/23 09:30:54;;;;;;;3.47;1.40;;;;;;;;;;4973752;28;20031;-73
2023/01/23 09:33:23;;;;;;;2.13;1.33;;;;;;;;;;4978864;28;20037;-74
2023/01/23 09:35:52;;;;;;;1.55;0.80;;;;;;;;;;4975902;28;20049;-73
2023/01/23 09:38:19;;;;;;;0.85;0.60;;;;;;;;;;4976289;28;20034;-74
2023/01/23 09:40:45;;;;;;;1.50;0.68;;;;;;;;;;4972755;28;20067;-74
2023/01/23 09:43:25;;;;;;;4.35;1.42;;;;;;;;;;4976338;28;20023;-73
2023/01/23 09:46:00;;;;;;;2.97;1.70;;;;;;;;;;4974927;28;20034;-73
2023/01/23 09:48:33;;;;;;;2.38;1.27;;;;;;;;;;4975579;28;20053;-74
2023/01/23 09:51:19;;;;;;;2.30;0.95;;;;;;;;;;4975544;28;20026;-73
2023/01/23 09:53:45;;;;;;;2.08;0.90;;;;;;;;;;4976649;28;20035;-73
2023/01/23 09:56:21;;;;;;;2.80;0.80;;;;;;;;;;4976087;28;20047;-74
2023/01/23 09:58:57;;;;;;;1.40;0.60;;;;;;;;;;4974826;28;20104;-73
2023/01/23 10:01:25;;;;;;;0.93;0.50;;;;;;;;;;4974457;28;20031;-73
2023/01/23 10:03:52;;;;;;;0.57;0.50;;;;;;;;;;4977625;28;20054;-74
2023/01/23 10:06:18;;;;;;;0.73;0.70;;;;;;;;;;4972810;28;20057;-74
2023/01/23 10:08:57;;;;;;;3.42;2.35;;;;;;;;;;4975958;28;20042;-73
2023/01/23 10:11:41;;;;;;;10.55;5.95;;;;;;;;;;4978337;28;20546;-73
2023/01/23 10:14:24;;;;;;;12.23;6.78;;;;;;;;;;4969962;28;20384;-73
2023/01/23 10:16:56;;;;;;;6.85;3.35;;;;;;;;;;4982195;28;20532;-73
2023/01/23 10:19:34;;;;;;;3.80;2.00;;;;;;;;;;4977533;28;20077;-73
2023/01/23 10:22:09;;;;;;;2.15;1.00;;;;;;;;;;4983264;28;20039;-73
2023/01/23 10:24:47;;;;;;;2.70;0.90;;;;;;;;;;4978059;28;20023;-73
2023/01/23 10:27:34;;;;;;;2.35;1.10;;;;;;;;;;4979378;28;20019;-73
2023/01/23 10:30:07;;;;;;;3.33;1.08;;;;;;;;;;4979192;28;20068;-73
2023/01/23 10:32:43;;;;;;;3.15;1.40;;;;;;;;;;4978528;28;20596;-73
2023/01/23 10:35:15;;;;;;;2.00;1.17;;;;;;;;;;4979943;28;20044;-73
2023/01/23 10:37:41;;;;;;;;;;;;;;;;;;4977776;28;20060;-73
2023/01/23 10:40:11;;;;;;;1.17;0.68;;;;;;;;;;4983129;28;20653;-73
2023/01/23 10:42:37;;;;;;;3.00;1.00;;;;;;;;;;4983269;28;20484;-72
2023/01/23 10:45:04;;;;;;;2.75;1.58;;;;;;;;;;4977797;28;20022;-73
2023/01/23 10:47:42;;;;;;;3.83;2.53;;;;;;;;;;4979435;28;20031;-73
2023/01/23 10:50:08;;;;;;;2.13;1.20;;;;;;;;;;4977827;28;20402;-73
2023/01/23 10:52:36;;;;;;;3.13;1.83;;;;;;;;;;4982243;28;20023;-73
2023/01/23 10:55:03;;;;;;;3.42;1.52;;;;;;;;;;4975296;28;20092;-73
2023/01/23 10:57:32;;;;;;;1.90;1.20;;;;;;;;;;4979338;28;20102;-73
2023/01/23 11:00:00;;;;;;;2.55;1.25;;;;;;;;;;4980232;28;20031;-73
2023/01/23 11:02:39;;;;;;;3.72;1.30;;;;;;;;;;4974982;28;20607;-73
2023/01/23 11:05:28;;;;;;;1.30;0.90;;;;;;;;;;4979322;28;20121;-73
2023/01/23 11:07:54;;;;;;;0.93;0.90;;;;;;;;;;4974338;28;20467;-73
2023/01/23 11:10:21;;;;;;;3.03;1.45;;;;;;;;;;4979811;28;20946;-73
2023/01/23 11:12:49;;;;;;;2.00;1.00;;;;;;;;;;4979601;28;20069;-73
2023/01/23 11:15:24;;;;;;;1.20;0.90;;;;;;;;;;4979008;28;20410;-73
2023/01/23 11:17:51;;;;;;;1.50;0.90;;;;;;;;;;4976755;28;20030;-73
2023/01/23 11:20:25;;;;;;;1.08;0.70;;;;;;;;;;4978235;28;20392;-73
2023/01/23 11:23:01;;;;;;;2.45;0.90;;;;;;;;;;4977554;28;20046;-73
2023/01/23 11:25:33;;;;;;;3.22;0.90;;;;;;;;;;4975351;28;20029;-73
2023/01/23 11:28:01;;;;;;;2.88;1.58;;;;;;;;;;4980403;28;20087;-73
2023/01/23 11:30:37;;;;;;;2.47;1.15;;;;;;;;;;4976263;28;20022;-73
2023/01/23 11:33:11;;;;;;;2.28;1.20;;;;;;;;;;4977915;28;20031;-73
2023/01/23 11:35:56;;;;;;;3.60;1.13;;;;;;;;;;4977933;28;20390;-73
2023/01/23 11:38:25;;;;;;;2.13;1.20;;;;;;;;;;4974270;28;20065;-73
2023/01/23 11:40:52;;;;;;;2.55;1.77;;;;;;;;;;4979229;28;20483;-73
2023/01/23 11:43:18;;;;;;;5.30;2.83;;;;;;;;;;4978716;28;20480;-73
2023/01/23 11:45:59;;;;;;;6.10;3.63;;;;;;;;;;4978279;28;20387;-73
2023/01/23 11:48:28;;;;;;;3.05;1.42;;;;;;;;;;4975243;28;20022;-73
2023/01/23 11:51:14;;;;;;;4.32;1.50;;;;;;;;;;4977963;28;20019;-73
2023/01/23 11:53:42;;;;;;;2.78;1.10;;;;;;;;;;4973779;28;20049;-73
2023/01/23 11:56:27;;;;;;;1.30;0.77;;;;;;;;;;4977222;28;20411;-73
2023/01/23 11:58:53;;;;;;;3.08;0.85;;;;;;;;;;4982322;28;20602;-73
2023/01/23 12:01:25;;;;;;;3.00;0.85;;;;;;;;;;4978006;28;20025;-73
2023/01/23 12:03:57;;;;;;;2.78;1.00;;;;;;;;;;4981589;28;20709;-73
2023/01/23 12:06:23;;;;;;;1.17;0.90;;;;;;;;;;4974290;28;20057;-73
2023/01/23 12:08:50;;;;;;;1.88;0.60;;;;;;;;;;4979747;28;20111;-73
2023/01/23 12:11:17;;;;;;;1.33;0.70;;;;;;;;;;4977837;28;20185;-73
2023/01/23 12:13:56;;;;;;;1.50;0.90;;;;;;;;;;4977151;28;20084;-73
2023/01/23 12:16:28;;;;;;;1.35;0.70;;;;;;;;;;4980374;28;20045;-73
2023/01/23 12:18:54;;;;;;;;;;;;;;;;;;4975785;28;20025;-73
2023/01/23 12:21:25;;;;;;;1.00;0.70;;;;;;;;;;4978748;28;19945;-73
2023/01/23 12:23:57;;;;;;;1.00;0.80;;;;;;;;;;4977433;28;20534;-73
2023/01/23 12:26:25;;;;;;;1.63;0.90;;;;;;;;;;4978301;28;20018;-73
2023/01/23 12:29:00;;;;;;;1.42;0.90;;;;;;;;;;4976223;28;20081;-73
2023/01/23 12:31:35;;;;;;;1.70;1.10;;;;;;;;;;4978782;28;20022;-73
2023/01/23 12:34:11;;;;;;;1.63;1.00;;;;;;;;;;4971379;28;20014;-73
2023/01/23 12:36:41;;;;;;;3.85;1.05;;;;;;;;;;4977161;28;20057;-73
2023/01/23 12:39:26;;;;;;;5.63;1.30;;;;;;;;;;4974354;28;20459;-73
2023/01/23 12:41:57;;;;;;;1.05;0.85;;;;;;;;;;4976627;28;20027;-75
2023/01/23 12:44:26;;;;;;;1.00;0.80;;;;;;;;;;4977501;28;20018;-73
2023/01/23 12:46:55;;;;;;;2.35;1.27;;;;;;;;;;4978885;28;20038;-75
2023/01/23 12:49:38;;;;;;;3.00;1.50;;;;;;;;;;4974733;28;20014;-75
2023/01/23 12:52:11;;;;;;;4.80;2.70;;;;;;;;;;4979069;28;20014;-74
2023/01/23 12:54:39;;;;;;;5.97;3.60;;;;;;;;;;4976278;28;20089;-74
2023/01/23 12:57:07;;;;;;;14.70;10.75;;;;;;;;;;4978224;28;20038;-75
2023/01/23 12:59:33;;;;;;;8.25;5.18;;;;;;;;;;4975673;28;20011;-74
2023/01/23 13:02:03;;;;;;;7.18;3.97;;;;;;;;;;4976345;28;20022;-74
2023/01/23 13:04:36;;;;;;;6.50;2.67;;;;;;;;;;4974835;28;20031;-74
2023/01/23 13:07:20;;;;;;;6.00;2.33;;;;;;;;;;4977096;28;20054;-74
2023/01/23 13:09:46;;;;;;;4.45;2.63;;;;;;;;;;4975965;28;20050;-74
2023/01/23 13:12:21;;;;;;;11.20;4.53;;;;;;;;;;4975053;28;20022;-74
2023/01/23 13:14:48;;;;;;;7.30;5.90;;;;;;;;;;4975743;28;20185;-74
2023/01/23 13:17:29;;;;;;;8.25;3.95;;;;;;;;;;4974108;28;20023;-74
2023/01/23 13:23:20;;;;;;;5.43;3.00;;;;;;;;;;4972829;28;20041;-74
2023/01/23 13:25:46;;;;;;;4.07;2.53;;;;;;;;;;4975874;28;20479;-74
2023/01/23 13:28:24;;;;;;;2.08;1.40;;;;;;;;;;4974151;28;20022;-74
2023/01/23 13:31:04;;;;;;;3.17;1.25;;;;;;;;;;4976937;28;20037;-74
2023/01/23 13:33:33;;;;;;;3.95;1.40;;;;;;;;;;4979674;28;20091;-74
2023/01/23 13:36:32;;;;;;;4.18;1.55;;;;;;;;;;4974386;28;20042;-73
2023/01/23 13:39:04;;;;;;;2.85;1.35;;;;;;;;;;4966329;28;20049;-73
2023/01/23 13:41:30;;;;;;;;;;;;;;;;;;4978181;28;20050;-73
2023/01/23 13:44:03;;;;;;;2.40;1.30;;;;;;;;;;4975371;28;19906;-74
2023/01/23 13:46:36;;;;;;;2.38;0.90;;;;;;;;;;4977471;28;20057;-74
2023/01/23 13:51:49;;;;;;;1.13;0.75;;;;;;;;;;4976049;28;20073;-74
2023/01/23 13:57:05;;;;;;;2.05;1.17;;;;;;;;;;4977126;28;20038;-74
2023/01/23 13:59:35;;;;;;;3.13;1.20;;;;;;;;;;4972146;28;20026;-73
2023/01/23 14:07:59;;;;;;;1.70;1.05;;;;;;;;;;4964511;28;20824;-74
2023/01/23 14:10:27;;;;;;;2.17;1.15;;;;;;;;;;4976530;28;20591;-74
2023/01/23 14:13:14;;;;;;;2.72;1.70;;;;;;;;;;4974333;28;20023;-76
2023/01/23 14:18:31;;;;;;;2.78;1.58;;;;;;;;;;4972809;28;20057;-73
2023/01/23 14:21:05;;;;;;;4.88;2.88;;;;;;;;;;4974695;28;20834;-73
2023/01/23 14:23:38;;;;;;;5.63;3.40;;;;;;;;;;4988749;28;20018;-75
2023/01/23 14:26:05;;;;;;;4.03;2.85;;;;;;;;;;4975475;28;20098;-74
2023/01/23 14:28:31;;;;;;;3.95;2.35;;;;;;;;;;4974921;28;20490;-76
2023/01/23 14:30:59;;;;;;;2.35;1.67;;;;;;;;;;4975136;28;20630;-74
2023/01/23 14:33:25;;;;;;;4.07;2.10;;;;;;;;;;4977951;28;20019;-74
2023/01/23 14:35:52;;;;;;;2.50;1.90;;;;;;;;;;4973885;28;20041;-74
2023/01/23 14:38:37;;;;;;;4.40;1.85;;;;;;;;;;4970866;28;20023;-75
2023/01/23 14:41:06;;;;;;;1.92;1.20;;;;;;;;;;4976855;28;20077;-75
2023/01/23 14:43:34;;;;;;;2.30;1.02;;;;;;;;;;4974073;28;20038;-75
2023/01/23 14:46:06;;;;;;;3.08;1.50;;;;;;;;;;4975273;28;20056;-74
2023/01/23 14:48:34;;;;;;;4.35;2.20;;;;;;;;;;4975308;28;20388;-75
2023/01/23 14:51:14;;;;;;;2.85;1.70;;;;;;;;;;4976739;28;20025;-74
2023/01/23 14:53:41;;;;;;;5.18;1.80;;;;;;;;;;4974886;28;20077;-76
2023/01/23 14:56:08;;;;;;;4.13;2.25;;;;;;;;;;4976571;28;20043;-73
2023/01/23 14:58:35;;;;;;;3.95;2.28;;;;;;;;;;4976564;28;20372;-73
2023/01/23 15:01:02;;;;;;;7.15;2.00;;;;;;;;;;4978205;28;20391;-74
2023/01/23 15:03:45;;;;;;;17.30;2.30;;;;;;;;;;4979901;28;20026;-74
2023/01/23 15:06:12;;;;;;;6.60;3.90;;;;;;;;;;4979373;28;20050;-79
2023/01/23 15:08:39;;;;;;;5.75;3.33;;;;;;;;;;4976918;28;20093;-76
2023/01/23 15:11:10;;;;;;;5.72;2.90;;;;;;;;;;4978074;28;20479;-74
2023/01/23 15:13:41;;;;;;;4.40;2.65;;;;;;;;;;4975146;28;20601;-74
2023/01/23 15:16:27;;;;;;;6.53;2.30;;;;;;;;;;4981380;28;20049;-74
2023/01/23 15:18:59;;;;;;;3.08;1.70;;;;;;;;;;4972512;28;20483;-75